Time;durP1;ratioP1;P1;durP2;ratioP2;P2;SDS_P1;SDS_P2;PMS_P1;PMS_P2;Temp;Humidity;BMP_temperature;BMP_pressure;BME280_temperature;BME280_humidity;BME280_pressure;Samples;Min_cycle;Max_cycle;Signal;HPM_P1;HPM_P2
2022/05/18 00:01:00;;;;;;;6.72;2.45;;;;;;;12.09;83.59;95664.73;1648327;87;21053;-66
2022/05/18 00:03:33;;;;;;;2.77;2.50;;;;;;;12.14;84.54;95663.30;1648055;87;21041;-66
2022/05/18 00:06:01;;;;;;;5.28;2.40;;;;;;;12.24;84.62;95658.67;1648574;87;21527;-66
2022/05/18 00:08:35;;;;;;;2.60;2.33;;;;;;;12.12;83.73;95658.53;1648124;87;21603;-66
2022/05/18 00:10:58;;;;;;;2.37;2.08;;;;;;;12.08;83.83;95658.17;1647382;87;21037;-66
2022/05/18 00:13:24;;;;;;;3.80;2.10;;;;;;;12.03;83.53;95655.63;1645629;87;21535;-66
2022/05/18 00:15:52;;;;;;;4.50;1.80;;;;;;;11.98;83.35;95653.55;1648347;87;20986;-66
2022/05/18 00:18:18;;;;;;;2.85;2.00;;;;;;;11.97;83.41;95651.81;1647986;87;21046;-66
2022/05/18 00:20:45;;;;;;;4.30;2.15;;;;;;;11.87;83.51;95662.19;1648174;87;21069;-66
2022/05/18 00:23:11;;;;;;;4.60;1.80;;;;;;;11.85;84.06;95667.47;1648168;87;21552;-66
2022/05/18 00:25:41;;;;;;;4.85;1.70;;;;;;;11.80;84.01;95669.80;1648395;87;21021;-66
2022/05/18 00:28:08;;;;;;;2.60;1.90;;;;;;;11.79;84.01;95666.72;1648223;87;21577;-66
2022/05/18 00:30:38;;;;;;;3.58;2.42;;;;;;;11.76;84.17;95672.08;1648278;87;20994;-66
2022/05/18 00:33:08;;;;;;;1.92;1.62;;;;;;;11.75;83.98;95682.25;1648245;87;21062;-66
2022/05/18 00:35:37;;;;;;;27.85;3.87;;;;;;;11.75;84.42;95683.57;1648284;87;21089;-66
2022/05/18 00:38:05;;;;;;;3.92;1.82;;;;;;;11.68;84.48;95682.36;1648163;87;21101;-66
2022/05/18 00:40:34;;;;;;;3.95;2.17;;;;;;;11.66;84.95;95691.23;1648279;87;21061;-66
2022/05/18 00:43:01;;;;;;;2.80;2.20;;;;;;;11.60;84.59;95684.31;1648227;87;21049;-66
2022/05/18 00:45:28;;;;;;;2.50;2.30;;;;;;;11.58;84.75;95687.42;1648018;87;21041;-66
2022/05/18 00:47:55;;;;;;;2.17;1.98;;;;;;;11.59;84.75;95686.97;1648338;87;21013;-66
2022/05/18 00:50:32;;;;;;;2.92;1.98;;;;;;;11.53;84.09;95676.55;1647995;87;21065;-66
2022/05/18 00:53:13;;;;;;;4.92;2.45;;;;;;;11.49;85.23;95679.72;1648313;87;21033;-67
2022/05/18 00:55:44;;;;;;;10.50;4.25;;;;;;;11.47;85.63;95685.02;1648450;87;21089;-66
2022/05/18 00:58:24;;;;;;;2.92;2.15;;;;;;;11.44;85.65;95683.77;1648039;87;21033;-67
2022/05/18 01:00:52;;;;;;;2.92;1.98;;;;;;;11.37;86.33;95684.79;1647983;87;21057;-66
2022/05/18 01:03:23;;;;;;;3.62;1.95;;;;;;;11.41;85.68;95686.91;1648555;87;21021;-66
2022/05/18 01:06:13;;;;;;;4.60;2.00;;;;;;;11.41;85.54;95692.19;1648062;87;21018;-66
2022/05/18 01:08:51;;;;;;;4.87;2.27;;;;;;;11.35;85.20;95685.27;1648486;87;21026;-68
2022/05/18 01:11:18;;;;;;;6.55;2.35;;;;;;;11.33;84.97;95687.06;1648467;87;21101;-68
2022/05/18 01:13:46;;;;;;;3.72;2.00;;;;;;;11.35;85.21;95689.69;1648158;87;21057;-68
2022/05/18 01:16:15;;;;;;;4.67;2.33;;;;;;;11.41;85.50;95693.51;1648323;87;21065;-68
2022/05/18 01:18:42;;;;;;;4.20;2.40;;;;;;;11.44;85.51;95694.76;1648317;87;21034;-69
2022/05/18 01:21:09;;;;;;;3.65;2.62;;;;;;;11.44;85.16;95698.72;1645643;87;21053;-69
2022/05/18 01:23:47;;;;;;;4.92;2.85;;;;;;;11.49;85.91;95698.21;1648241;87;21038;-69
2022/05/18 01:26:40;;;;;;;4.47;2.50;;;;;;;11.58;85.53;95697.13;1647892;87;21053;-69
2022/05/18 01:29:08;;;;;;;3.37;2.47;;;;;;;11.63;85.22;95694.81;1648362;87;21009;-66
2022/05/18 01:31:51;;;;;;;2.55;2.10;;;;;;;11.61;86.02;95688.67;1648208;87;21054;-66
2022/05/18 01:34:21;;;;;;;3.20;2.75;;;;;;;11.48;85.98;95690.70;1648285;87;21033;-66
2022/05/18 01:36:48;;;;;;;4.72;3.05;;;;;;;11.54;86.11;95688.41;1648429;87;21010;-67
2022/05/18 01:39:26;;;;;;;3.92;3.55;;;;;;;11.59;86.22;95696.22;1648207;87;21063;-66
2022/05/18 01:42:27;;;;;;;4.53;3.67;;;;;;;11.62;85.89;95689.11;1648179;87;21030;-66
2022/05/18 01:44:54;;;;;;;7.40;3.90;;;;;;;11.73;86.43;95688.88;1648191;87;21061;-66
2022/05/18 01:47:21;;;;;;;4.10;3.42;;;;;;;11.86;86.42;95696.09;1648182;87;21053;-66
2022/05/18 01:49:49;;;;;;;4.12;2.62;;;;;;;11.93;85.96;95690.26;1648186;87;21046;-66
2022/05/18 01:52:17;;;;;;;5.03;3.85;;;;;;;11.99;85.80;95690.97;1648194;87;21090;-66
2022/05/18 01:54:47;;;;;;;7.15;3.60;;;;;;;11.99;85.84;95692.75;1648101;87;21069;-66
2022/05/18 01:57:14;;;;;;;4.95;3.80;;;;;;;12.03;85.97;95698.40;1648405;87;21523;-66
2022/05/18 01:59:42;;;;;;;7.15;3.90;;;;;;;12.06;85.49;95698.33;1648225;87;21085;-66
2022/05/18 02:02:12;;;;;;;7.12;4.78;;;;;;;12.13;85.50;95702.11;1648082;87;21539;-66
2022/05/18 02:04:41;;;;;;;5.53;4.20;;;;;;;12.16;85.25;95706.92;1648241;87;21026;-66
2022/05/18 02:07:08;;;;;;;10.50;4.22;;;;;;;12.13;84.79;95704.76;1648297;87;21504;-66
2022/05/18 02:09:35;;;;;;;6.42;4.25;;;;;;;12.12;84.81;95708.32;1648099;87;21041;-66
2022/05/18 02:12:01;;;;;;;7.37;4.80;;;;;;;12.14;84.50;95712.23;1648369;87;21026;-66
2022/05/18 02:14:28;;;;;;;5.62;4.92;;;;;;;12.11;84.23;95722.44;1648255;87;21049;-66
2022/05/18 02:16:54;;;;;;;5.22;4.50;;;;;;;12.09;84.25;95719.41;1647960;87;21559;-66
2022/05/18 02:19:21;;;;;;;7.65;4.75;;;;;;;12.08;84.23;95718.55;1648299;87;21078;-66
2022/05/18 02:21:49;;;;;;;8.30;5.22;;;;;;;12.07;84.18;95726.07;1648472;87;21041;-66
2022/05/18 02:24:17;;;;;;;5.12;4.42;;;;;;;12.06;83.93;95722.98;1648081;87;21053;-66
2022/05/18 02:26:44;;;;;;;5.65;4.28;;;;;;;12.01;83.92;95725.33;1648269;87;21097;-66
2022/05/18 02:29:11;;;;;;;6.53;4.45;;;;;;;12.04;83.91;95738.02;1648265;87;21077;-66
2022/05/18 02:31:37;;;;;;;5.72;3.95;;;;;;;12.01;83.81;95734.13;1647877;87;21097;-66
2022/05/18 02:34:05;;;;;;;5.83;4.03;;;;;;;11.99;83.81;95739.89;1648288;87;21017;-66
2022/05/18 02:36:31;;;;;;;4.53;3.62;;;;;;;11.97;83.76;95737.76;1648263;87;21053;-66
2022/05/18 02:38:58;;;;;;;4.95;3.83;;;;;;;11.96;83.62;95747.03;1648354;87;21034;-66
2022/05/18 02:41:24;;;;;;;7.53;3.95;;;;;;;11.96;83.42;95759.80;1647968;87;21069;-66
2022/05/18 02:43:52;;;;;;;4.97;3.40;;;;;;;11.91;83.11;95765.17;1648272;87;21064;-66
2022/05/18 02:46:22;;;;;;;5.35;3.87;;;;;;;11.87;82.97;95769.27;1648356;87;21077;-67
2022/05/18 02:48:51;;;;;;;4.80;3.47;;;;;;;11.82;82.92;95776.39;1648156;87;21145;-66
2022/05/18 02:51:19;;;;;;;4.95;3.30;;;;;;;11.76;82.86;95788.39;1648130;87;21033;-67
2022/05/18 02:53:46;;;;;;;5.40;3.30;;;;;;;11.68;82.67;95792.52;1647969;87;21133;-66
2022/05/18 02:56:17;;;;;;;5.78;3.30;;;;;;;11.62;82.41;95792.64;1648178;87;21042;-66
2022/05/18 02:58:48;;;;;;;5.97;3.80;;;;;;;11.55;82.44;95797.16;1648078;87;21598;-66
2022/05/18 03:01:24;;;;;;;4.33;3.90;;;;;;;11.55;82.69;95802.91;1651547;87;21551;-66
2022/05/18 03:03:53;;;;;;;5.10;3.42;;;;;;;11.56;83.02;95805.95;1653011;87;21049;-66
2022/05/18 03:06:23;;;;;;;7.55;3.30;;;;;;;11.56;82.96;95817.39;1652886;87;21033;-67
2022/05/18 03:08:50;;;;;;;4.78;3.10;;;;;;;11.49;82.47;95818.44;1652984;87;21049;-66
2022/05/18 03:11:18;;;;;;;5.37;2.77;;;;;;;11.37;81.93;95831.41;1653083;87;21018;-66
2022/05/18 03:13:44;;;;;;;3.17;2.80;;;;;;;11.31;81.89;95841.20;1653023;87;21049;-67
2022/05/18 03:16:11;;;;;;;10.00;2.62;;;;;;;11.22;81.82;95853.67;1653104;87;21024;-67
2022/05/18 03:18:38;;;;;;;6.65;3.00;;;;;;;11.13;80.86;95864.38;1652853;87;21476;-67
2022/05/18 03:23:49;;;;;;;5.53;2.30;;;;;;;10.83;79.89;95874.55;1653180;87;21049;-69
2022/05/18 03:26:20;;;;;;;7.37;2.50;;;;;;;10.71;79.17;95874.73;1652839;87;21020;-70
2022/05/18 03:28:49;;;;;;;3.63;2.60;;;;;;;10.62;79.62;95878.81;1652834;87;21096;-67
2022/05/18 03:31:17;;;;;;;3.90;2.27;;;;;;;10.50;79.47;95889.53;1653001;87;21029;-67
2022/05/18 03:33:45;;;;;;;4.20;2.80;;;;;;;10.38;79.65;95893.20;1652970;87;21524;-67
2022/05/18 03:36:15;;;;;;;3.87;2.62;;;;;;;10.26;80.05;95896.85;1653051;87;21029;-67
2022/05/18 03:38:44;;;;;;;4.80;2.40;;;;;;;10.20;79.95;95898.23;1652884;87;20990;-67
2022/05/18 03:41:12;;;;;;;4.47;2.47;;;;;;;10.12;80.66;95906.69;1652837;87;21061;-67
2022/05/18 03:43:39;;;;;;;5.28;2.65;;;;;;;10.07;80.69;95914.64;1652608;87;21089;-67
2022/05/18 03:46:07;;;;;;;3.55;2.30;;;;;;;10.06;80.82;95912.05;1652839;87;21542;-67
2022/05/18 03:48:34;;;;;;;3.92;2.33;;;;;;;10.06;80.96;95918.64;1652775;87;21049;-67
2022/05/18 03:51:04;;;;;;;4.22;2.10;;;;;;;10.10;81.04;95924.28;1652765;87;21037;-67
2022/05/18 03:53:31;;;;;;;2.55;2.22;;;;;;;10.17;81.00;95924.64;1652962;87;21037;-67
2022/05/18 03:55:58;;;;;;;3.87;2.42;;;;;;;10.21;80.35;95924.18;1652863;87;21511;-67
2022/05/18 03:58:26;;;;;;;4.45;2.40;;;;;;;10.21;80.50;95930.32;1652832;87;21092;-67
2022/05/18 04:00:55;;;;;;;4.60;2.62;;;;;;;10.22;79.87;95929.41;1650635;87;21429;-67
2022/05/18 04:03:26;;;;;;;3.70;2.70;;;;;;;10.19;79.68;95926.82;1648185;87;21018;-70
2022/05/18 04:05:54;;;;;;;3.33;2.30;;;;;;;10.18;80.04;95931.23;1648278;87;21089;-67
2022/05/18 04:08:21;;;;;;;7.13;3.13;;;;;;;10.16;79.88;95935.64;1648185;87;21057;-67
2022/05/18 04:10:48;;;;;;;5.90;2.67;;;;;;;10.14;79.74;95939.19;1648455;87;21041;-67
2022/05/18 04:13:18;;;;;;;2.92;2.27;;;;;;;10.10;79.32;95939.65;1648318;87;21030;-67
2022/05/18 04:15:45;;;;;;;3.27;2.30;;;;;;;10.09;79.15;95938.37;1648290;87;21065;-67
2022/05/18 04:18:12;;;;;;;2.60;1.62;;;;;;;10.05;78.91;95947.19;1648206;87;21059;-67
2022/05/18 04:20:40;;;;;;;4.12;1.70;;;;;;;10.01;78.42;95945.49;1648056;87;21085;-67
2022/05/18 04:23:07;;;;;;;4.10;1.60;;;;;;;9.97;77.85;95963.09;1648376;87;21013;-65
2022/05/18 04:25:36;;;;;;;4.67;1.50;;;;;;;9.96;75.98;95975.85;1648252;87;21049;-68
2022/05/18 04:28:04;;;;;;;3.27;1.70;;;;;;;9.93;72.53;95984.66;1648455;87;21006;-68
2022/05/18 04:30:31;;;;;;;3.83;1.37;;;;;;;9.92;71.78;95996.08;1648074;87;21051;-68
2022/05/18 04:32:58;;;;;;;2.72;1.47;;;;;;;9.90;72.56;95998.30;1648369;87;21488;-69
2022/05/18 04:35:28;;;;;;;2.53;1.40;;;;;;;9.94;72.52;96003.53;1648225;87;21543;-69
2022/05/18 04:37:56;;;;;;;2.97;1.80;;;;;;;9.93;72.81;96018.93;1648159;87;21077;-69
2022/05/18 04:40:23;;;;;;;5.17;1.70;;;;;;;9.91;73.09;96019.38;1648248;87;21487;-69
2022/05/18 04:42:51;;;;;;;2.80;1.50;;;;;;;9.97;72.67;96027.67;1648232;87;21547;-69
2022/05/18 04:45:21;;;;;;;3.20;1.80;;;;;;;10.03;73.15;96028.05;1648148;87;21054;-69
2022/05/18 04:47:48;;;;;;;3.70;2.05;;;;;;;10.07;72.93;96031.09;1648250;87;21531;-69
2022/05/18 04:50:15;;;;;;;3.70;2.00;;;;;;;10.12;72.98;96032.80;1647931;87;21184;-69
2022/05/18 04:52:42;;;;;;;5.07;2.10;;;;;;;10.18;73.13;96040.66;1648362;87;21010;-69
2022/05/18 04:55:10;;;;;;;5.20;1.73;;;;;;;10.21;72.04;96034.94;1648319;87;21500;-69
2022/05/18 04:57:37;;;;;;;8.35;2.10;;;;;;;10.22;72.00;96041.49;1648162;87;21476;-69
2022/05/18 05:00:09;;;;;;;5.40;1.70;;;;;;;10.15;69.59;96041.12;1647981;87;21121;-69
2022/05/18 05:02:37;;;;;;;3.33;1.70;;;;;;;10.08;69.50;96044.28;1650493;87;21100;-75
2022/05/18 05:05:10;;;;;;;2.83;1.43;;;;;;;10.06;70.00;96043.41;1650561;87;21052;-76
2022/05/18 05:07:37;;;;;;;4.00;1.60;;;;;;;10.07;69.61;96047.78;1650490;87;21069;-69
2022/05/18 05:10:05;;;;;;;5.43;1.80;;;;;;;10.02;68.47;96050.04;1649749;87;21060;-72
2022/05/18 05:12:32;;;;;;;2.40;1.37;;;;;;;10.01;68.67;96045.22;1650532;87;21037;-72
2022/05/18 05:14:58;;;;;;;2.35;1.45;;;;;;;9.98;68.14;96045.25;1650341;87;21030;-71
2022/05/18 05:17:25;;;;;;;2.93;1.70;;;;;;;10.01;68.26;96045.67;1649714;87;21100;-73
2022/05/18 05:19:52;;;;;;;3.20;1.27;;;;;;;10.06;68.58;96050.45;1684936;85;21076;-70
2022/05/18 05:22:18;;;;;;;6.13;1.63;;;;;;;10.12;68.00;96046.42;1650060;87;21108;-71
2022/05/18 05:24:45;;;;;;;5.63;1.20;;;;;;;10.11;67.39;96053.92;1684927;85;21052;-71
2022/05/18 05:27:11;;;;;;;5.13;1.40;;;;;;;10.10;65.43;96050.39;1651006;87;21085;-73
2022/05/18 05:29:38;;;;;;;3.00;1.20;;;;;;;10.18;65.58;96058.26;1649496;87;21598;-72
2022/05/18 05:32:07;;;;;;;1.90;0.98;;;;;;;10.26;65.01;96053.77;1685450;85;21466;-70
2022/05/18 05:34:34;;;;;;;1.93;1.40;;;;;;;10.33;63.84;96059.45;1649776;87;21507;-73
2022/05/18 05:37:01;;;;;;;6.58;1.30;;;;;;;10.42;63.67;96065.06;1649754;87;21045;-71
2022/05/18 05:39:28;;;;;;;1.50;1.02;;;;;;;10.36;60.14;96067.33;1650520;87;21061;-65
2022/05/18 05:41:55;;;;;;;4.60;0.95;;;;;;;10.38;61.15;96077.42;1649680;87;21287;-76
2022/05/18 05:44:21;;;;;;;2.62;1.15;;;;;;;10.41;58.72;96071.24;1650770;87;21033;-72
2022/05/18 05:46:48;;;;;;;3.10;1.00;;;;;;;10.49;59.22;96073.80;1650307;87;21097;-76
2022/05/18 05:49:14;;;;;;;2.65;1.20;;;;;;;10.57;57.87;96077.22;1685076;85;21573;-72
2022/05/18 05:51:41;;;;;;;1.75;0.98;;;;;;;10.61;55.60;96085.55;1685401;85;21076;-78
2022/05/18 05:54:08;;;;;;;3.40;1.20;;;;;;;10.58;56.04;96092.15;1684836;85;21032;-70
2022/05/18 05:56:34;;;;;;;2.27;1.10;;;;;;;10.46;54.48;96096.23;1649988;87;21642;-75
2022/05/18 05:59:01;;;;;;;3.45;1.50;;;;;;;10.45;58.07;96103.28;1650333;87;21061;-74
2022/05/18 06:01:28;;;;;;;3.83;1.30;;;;;;;10.53;58.35;96109.80;1684556;85;21492;-72
2022/05/18 06:03:54;;;;;;;3.33;1.30;;;;;;;10.52;57.44;96114.66;1682278;85;21132;-73
2022/05/18 06:06:21;;;;;;;4.60;1.10;;;;;;;10.56;59.20;96115.94;1682873;85;21081;-70
2022/05/18 06:08:50;;;;;;;3.87;1.40;;;;;;;10.61;58.17;96127.77;1681682;85;21111;-72
2022/05/18 06:11:17;;;;;;;6.40;2.55;;;;;;;10.71;58.77;96130.73;1682263;85;22161;-72
2022/05/18 06:13:44;;;;;;;4.37;1.32;;;;;;;10.85;59.77;96136.30;1682953;85;21084;-72
2022/05/18 06:16:10;;;;;;;3.72;1.42;;;;;;;10.98;59.03;96134.81;1680481;85;21005;-72
2022/05/18 06:18:38;;;;;;;2.52;1.30;;;;;;;11.01;56.44;96137.45;1681406;85;21081;-74
2022/05/18 06:21:06;;;;;;;2.10;1.07;;;;;;;11.09;56.80;96134.71;1680369;85;21032;-73
2022/05/18 06:23:32;;;;;;;3.25;0.90;;;;;;;11.11;53.46;96132.90;1680545;85;21116;-73
2022/05/18 06:26:05;;;;;;;1.17;0.93;;;;;;;11.10;52.25;96137.77;1682791;85;21479;-74
2022/05/18 06:28:32;;;;;;;2.90;1.00;;;;;;;11.12;52.42;96148.33;1675232;85;20993;-73
2022/05/18 06:30:59;;;;;;;1.45;1.02;;;;;;;11.11;52.92;96156.67;1681904;85;21096;-73
2022/05/18 06:33:25;;;;;;;2.85;1.00;;;;;;;11.11;53.04;96152.70;1683819;85;20977;-75
2022/05/18 06:35:52;;;;;;;2.58;1.10;;;;;;;11.17;52.99;96161.90;1684255;85;21070;-75
2022/05/18 06:38:20;;;;;;;3.22;1.30;;;;;;;11.22;53.47;96160.08;1684819;85;21511;-75
2022/05/18 06:43:32;;;;;;;9.30;1.40;;;;;;;11.30;51.25;96170.55;1684882;85;21092;-74
2022/05/18 06:46:01;;;;;;;1.42;1.15;;;;;;;11.24;50.07;96175.47;1684837;85;21701;-73
2022/05/18 06:48:28;;;;;;;3.27;1.00;;;;;;;11.20;50.19;96184.76;1684765;85;21096;-74
2022/05/18 06:50:55;;;;;;;3.58;1.05;;;;;;;11.16;49.24;96185.67;1684070;85;21082;-73
2022/05/18 06:53:21;;;;;;;3.67;1.20;;;;;;;11.05;47.01;96191.08;1684582;85;21080;-74
2022/05/18 06:55:49;;;;;;;4.55;1.10;;;;;;;11.14;50.12;96197.59;1685077;85;21028;-72
2022/05/18 06:58:18;;;;;;;8.25;1.05;;;;;;;11.27;49.88;96193.05;1684106;85;21557;-71
2022/05/18 07:00:44;;;;;;;4.20;1.05;;;;;;;11.46;50.58;96188.39;1683513;85;21557;-70
2022/05/18 07:03:12;;;;;;;3.33;0.93;;;;;;;11.53;48.94;96191.39;1642535;87;21088;-71
2022/05/18 07:05:39;;;;;;;4.00;1.05;;;;;;;11.55;47.21;96186.97;1643090;86;21002;-71
2022/05/18 07:08:06;;;;;;;1.17;0.90;;;;;;;11.62;48.19;96188.64;1642549;86;21061;-71
2022/05/18 07:10:33;;;;;;;4.20;0.93;;;;;;;11.60;44.93;96193.52;1617797;87;21128;-71
2022/05/18 07:12:59;;;;;;;1.45;0.82;;;;;;;11.63;45.63;96198.77;1642516;87;21072;-71
2022/05/18 07:15:26;;;;;;;2.22;0.90;;;;;;;11.68;44.52;96212.80;1642014;87;21077;-75
2022/05/18 07:17:53;;;;;;;3.50;1.00;;;;;;;11.68;45.29;96212.80;1642375;87;21122;-74
2022/05/18 07:20:19;;;;;;;6.85;1.20;;;;;;;11.75;45.05;96217.11;1642593;87;21374;-73
2022/05/18 07:22:46;;;;;;;1.77;0.90;;;;;;;11.78;45.13;96214.88;1642837;86;21638;-73
2022/05/18 07:25:13;;;;;;;3.55;0.98;;;;;;;11.83;45.16;96215.69;1642547;87;21160;-71
2022/05/18 07:27:39;;;;;;;4.25;0.80;;;;;;;11.81;43.49;96221.44;1642106;87;21100;-71
2022/05/18 07:30:09;;;;;;;1.67;0.80;;;;;;;11.79;44.11;96225.44;1642130;86;21129;-71
2022/05/18 07:32:37;;;;;;;2.90;1.15;;;;;;;11.83;44.97;96238.16;1642333;86;21148;-78
2022/05/18 07:35:05;;;;;;;5.40;0.80;;;;;;;12.06;44.76;96225.97;1642098;86;21034;-78
2022/05/18 07:37:31;;;;;;;3.15;0.93;;;;;;;12.12;43.94;96232.06;1642451;87;21586;-73
2022/05/18 07:39:58;;;;;;;2.05;0.80;;;;;;;12.31;43.44;96242.36;1641978;87;21087;-75
2022/05/18 07:42:24;;;;;;;4.90;0.93;;;;;;;12.35;40.71;96240.11;1642663;87;21069;-74
2022/05/18 07:44:51;;;;;;;4.42;0.57;;;;;;;12.40;40.95;96229.00;1643330;87;21025;-72
2022/05/18 07:47:20;;;;;;;7.70;0.98;;;;;;;12.49;41.36;96236.77;1642420;87;21090;-71
2022/05/18 07:49:46;;;;;;;3.55;0.80;;;;;;;12.67;41.86;96238.70;1619537;87;21524;-68
2022/05/18 07:52:13;;;;;;;3.87;0.68;;;;;;;12.84;43.64;96228.70;1641911;86;21105;-71
2022/05/18 07:54:39;;;;;;;2.72;0.90;;;;;;;12.94;41.55;96230.75;1643474;87;21500;-73
2022/05/18 07:57:08;;;;;;;3.33;0.75;;;;;;;12.98;38.67;96237.30;1642707;86;21081;-70
2022/05/18 07:59:34;;;;;;;4.37;0.98;;;;;;;12.99;38.84;96244.78;1641936;86;22220;-74
2022/05/18 08:02:01;;;;;;;6.35;1.15;;;;;;;13.12;38.87;96249.41;1646937;86;21061;-70
2022/05/18 08:04:28;;;;;;;4.00;0.90;;;;;;;13.14;38.18;96254.23;1652000;87;21029;-69
2022/05/18 08:06:54;;;;;;;2.90;0.98;;;;;;;13.24;40.45;96259.80;1651798;87;21104;-72
2022/05/18 08:09:22;;;;;;;3.77;1.00;;;;;;;13.30;39.53;96262.34;1651739;87;21107;-74
2022/05/18 08:17:24;;;;;;;3.98;0.93;;;;;;;13.64;41.44;96273.19;1628305;87;21049;-69
2022/05/18 08:19:50;;;;;;;3.00;0.95;;;;;;;13.78;39.28;96276.91;1651584;87;21120;-70
2022/05/18 08:22:17;;;;;;;4.75;0.90;;;;;;;13.69;38.88;96275.76;1651455;87;21118;-69
2022/05/18 08:24:43;;;;;;;1.55;0.90;;;;;;;13.86;40.12;96272.77;1655288;86;21016;-69
2022/05/18 08:27:16;;;;;;;6.17;1.10;;;;;;;13.83;37.48;96269.73;1654961;87;21033;-69
2022/05/18 08:29:43;;;;;;;4.20;0.80;;;;;;;14.06;41.65;96274.98;1654165;87;21076;-75
2022/05/18 08:32:09;;;;;;;4.05;1.45;;;;;;;14.18;38.82;96273.86;1653606;87;21116;-75
2022/05/18 08:34:36;;;;;;;4.87;0.72;;;;;;;14.23;40.80;96274.16;1653764;87;22166;-74
2022/05/18 08:37:04;;;;;;;3.75;0.90;;;;;;;14.35;38.59;96276.14;1653731;86;21033;-72
2022/05/18 08:39:30;;;;;;;2.80;1.00;;;;;;;14.42;38.34;96281.73;1653890;87;21105;-72
2022/05/18 08:41:58;;;;;;;5.75;0.90;;;;;;;14.47;38.64;96285.16;1654294;87;21089;-73
2022/05/18 08:44:31;;;;;;;1.50;1.00;;;;;;;14.55;39.77;96287.21;1654094;87;21088;-70
2022/05/18 08:47:20;;;;;;;4.97;1.00;;;;;;;14.62;36.51;96304.76;1653333;87;21080;-72
2022/05/18 08:50:16;;;;;;;4.40;0.85;;;;;;;14.45;33.18;96294.94;1662038;85;21561;-69
2022/05/18 08:53:02;;;;;;;1.05;0.60;;;;;;;14.55;38.34;96295.64;1678062;85;21546;-70
2022/05/18 08:55:45;;;;;;;4.03;0.80;;;;;;;14.79;39.78;96302.14;1677561;85;21530;-69
2022/05/18 08:58:21;;;;;;;7.87;0.85;;;;;;;15.04;40.09;96300.63;1678047;85;21519;-77
2022/05/18 09:00:58;;;;;;;6.28;0.90;;;;;;;15.23;37.96;96302.85;1676545;85;21631;-74
2022/05/18 09:03:46;;;;;;;4.37;0.80;;;;;;;15.33;40.12;96302.56;1676826;85;21551;-71
2022/05/18 09:06:42;;;;;;;5.12;0.85;;;;;;;15.34;37.83;96306.95;1678351;85;21050;-70
2022/05/18 09:12:05;;;;;;;1.50;0.80;;;;;;;15.26;36.08;96320.05;1678082;85;21017;-70
2022/05/18 09:14:38;;;;;;;6.22;1.07;;;;;;;15.17;35.94;96314.95;1676387;85;21032;-69
2022/05/18 09:17:25;;;;;;;1.90;0.90;;;;;;;15.31;36.51;96316.81;1673100;86;21527;-70
2022/05/18 09:19:59;;;;;;;2.12;0.93;;;;;;;15.89;37.77;96315.75;1673358;86;21036;-70
2022/05/18 09:23:11;;;;;;;2.35;0.90;;;;;;;15.89;37.77;96315.75;1673352;86;21113;-70
2022/05/18 09:26:11;;;;;;;7.87;0.93;;;;;;;15.94;34.88;96330.66;1671853;86;21120;-70
2022/05/18 09:28:53;;;;;;;5.40;1.10;;;;;;;16.01;37.81;96317.60;1672340;86;21069;-69
2022/05/18 09:31:52;;;;;;;1.98;1.00;;;;;;;16.04;34.86;96315.77;1660994;86;21027;-70
2022/05/18 09:34:39;;;;;;;6.72;1.00;;;;;;;15.91;33.96;96343.20;1673038;86;21102;-70
2022/05/18 09:37:29;;;;;;;2.87;1.10;;;;;;;15.92;34.25;96343.59;1651490;86;21078;-70
2022/05/18 09:40:22;;;;;;;1.42;0.88;;;;;;;15.82;34.56;96331.00;1673575;86;21041;-70
2022/05/18 09:43:15;;;;;;;3.52;1.00;;;;;;;16.06;35.91;96340.10;1670190;86;21034;-70
2022/05/18 09:45:47;;;;;;;1.98;0.88;;;;;;;16.07;34.65;96313.02;1673226;84;21057;-69
2022/05/18 09:48:35;;;;;;;2.52;1.00;;;;;;;16.33;35.53;96332.22;1673426;86;21053;-70
2022/05/18 09:51:05;;;;;;;2.15;0.93;;;;;;;16.41;33.85;96332.89;1673796;86;21053;-70
2022/05/18 09:53:32;;;;;;;3.25;0.90;;;;;;;16.53;36.23;96334.29;1673475;86;21026;-69
2022/05/18 09:55:58;;;;;;;9.28;1.45;;;;;;;16.70;36.64;96335.98;1673487;86;21006;-70
2022/05/18 09:58:35;;;;;;;2.90;1.00;;;;;;;16.83;35.30;96336.51;1673530;86;21527;-70
2022/05/18 10:09:45;;;;;;;5.92;1.67;;;;;;;17.08;34.80;96353.50;1666194;86;20998;-69
2022/05/18 10:12:20;;;;;;;2.87;1.27;;;;;;;17.20;32.17;96350.00;1666196;85;21081;-69
2022/05/18 10:15:00;;;;;;;6.95;1.20;;;;;;;17.05;31.69;96346.91;1665892;86;21030;-70
2022/05/18 10:17:41;;;;;;;6.78;0.90;;;;;;;16.74;30.34;96344.31;1665310;85;21109;-69
2022/05/18 10:20:31;;;;;;;8.23;0.90;;;;;;;16.68;31.97;96351.61;1664892;86;20998;-70
2022/05/18 10:22:59;;;;;;;3.12;0.80;;;;;;;16.64;31.64;96361.03;1665150;86;21094;-70
2022/05/18 10:25:34;;;;;;;5.20;1.02;;;;;;;16.61;33.08;96369.12;1665518;86;21065;-70
2022/05/18 10:28:24;;;;;;;6.70;1.20;;;;;;;16.60;31.11;96367.83;1665671;86;21086;-70
2022/05/18 10:30:58;;;;;;;5.50;1.10;;;;;;;16.69;32.35;96375.56;1665736;85;21500;-70
2022/05/18 10:33:36;;;;;;;5.25;0.88;;;;;;;16.82;33.45;96378.28;1665951;85;21085;-70
2022/05/18 10:36:24;;;;;;;3.77;0.85;;;;;;;16.73;29.94;96373.66;1666310;85;21034;-69
2022/05/18 10:38:56;;;;;;;2.20;0.90;;;;;;;16.65;31.32;96375.22;1666050;86;21484;-69
2022/05/18 10:41:28;;;;;;;2.55;0.55;;;;;;;16.57;34.16;96373.25;1666070;85;21490;-69
2022/05/18 10:44:06;;;;;;;1.57;0.57;;;;;;;16.79;34.40;96388.18;1641526;86;21085;-69
2022/05/18 10:46:49;;;;;;;2.92;0.80;;;;;;;17.06;31.76;96378.00;1665954;86;21014;-69
2022/05/18 10:49:31;;;;;;;1.77;0.60;;;;;;;17.38;34.05;96388.54;1666141;85;21563;-69
2022/05/18 10:52:24;;;;;;;4.97;1.02;;;;;;;17.64;33.52;96397.00;1666176;85;21046;-70
2022/05/18 10:54:56;;;;;;;3.92;0.90;;;;;;;17.84;32.63;96390.58;1665966;86;21053;-70
2022/05/18 10:57:34;;;;;;;4.33;0.80;;;;;;;17.70;30.82;96384.33;1666270;86;21093;-70
2022/05/18 11:00:15;;;;;;;4.03;1.30;;;;;;;17.62;31.32;96380.20;1665647;86;21022;-70
2022/05/18 11:03:06;;;;;;;1.87;0.80;;;;;;;17.39;31.39;96385.83;1668329;85;21018;-70
2022/05/18 11:05:52;;;;;;;3.67;0.62;;;;;;;17.10;32.76;96381.42;1673466;86;21122;-70
2022/05/18 11:08:24;;;;;;;3.30;0.80;;;;;;;17.14;32.64;96392.42;1673683;86;21089;-69
2022/05/18 11:11:40;;;;;;;6.70;0.70;;;;;;;16.81;30.97;96379.22;1673449;86;21053;-69
2022/05/18 11:14:45;;;;;;;4.62;0.72;;;;;;;16.73;31.66;96389.21;1673566;86;21165;-69
2022/05/18 11:17:52;;;;;;;6.60;0.80;;;;;;;16.85;33.85;96387.98;1673180;86;21065;-69
2022/05/18 11:20:46;;;;;;;4.53;0.75;;;;;;;17.01;33.11;96383.94;1673583;86;21563;-69
2022/05/18 11:23:55;;;;;;;3.10;0.70;;;;;;;17.29;33.52;96385.26;1673624;86;21532;-69
2022/05/18 11:26:39;;;;;;;2.83;0.85;;;;;;;17.22;31.95;96388.17;1673745;86;20990;-69
2022/05/18 11:29:36;;;;;;;5.92;0.80;;;;;;;17.33;33.70;96392.69;1673256;86;21206;-69
2022/05/18 11:32:39;;;;;;;3.52;0.70;;;;;;;17.61;32.97;96393.11;1672531;86;21129;-69
2022/05/18 11:35:29;;;;;;;1.93;0.50;;;;;;;17.57;33.23;96393.69;1673858;86;21088;-70
2022/05/18 11:38:22;;;;;;;3.02;0.50;;;;;;;17.41;30.08;96395.09;1673639;86;21367;-70
2022/05/18 11:41:21;;;;;;;1.20;0.60;;;;;;;17.58;31.22;96394.55;1673787;86;21062;-70
2022/05/18 11:44:11;;;;;;;4.05;0.90;;;;;;;17.63;29.99;96398.80;1673324;86;21057;-70
2022/05/18 11:47:01;;;;;;;2.25;0.60;;;;;;;17.62;29.83;96397.08;1673498;86;21062;-69
2022/05/18 11:50:15;;;;;;;6.08;0.90;;;;;;;17.84;32.95;96395.03;1667239;86;21006;-69
2022/05/18 11:53:15;;;;;;;3.00;0.75;;;;;;;18.02;28.28;96391.73;1667134;86;21085;-69
2022/05/18 11:55:53;;;;;;;0.90;0.53;;;;;;;18.44;29.69;96395.58;1672925;86;21078;-69
2022/05/18 11:58:43;;;;;;;2.02;0.60;;;;;;;18.95;29.20;96399.91;1663665;86;21097;-69
2022/05/18 12:01:11;;;;;;;2.52;0.68;;;;;;;19.33;27.27;96401.09;1670305;86;21065;-69
2022/05/18 12:04:24;;;;;;;2.85;0.70;;;;;;;19.67;29.38;96395.70;1673446;86;21042;-69
2022/05/18 12:07:01;;;;;;;2.33;0.70;;;;;;;19.97;29.50;96390.86;1673564;86;21511;-69
2022/05/18 12:10:02;;;;;;;2.08;0.50;;;;;;;20.60;26.81;96390.79;1673714;86;21098;-70
2022/05/18 12:12:34;;;;;;;1.42;0.68;;;;;;;20.71;25.73;96379.12;1673322;86;21050;-70
2022/05/18 12:15:24;;;;;;;1.50;0.60;;;;;;;21.06;26.59;96369.86;1673755;86;21045;-70
2022/05/18 12:18:01;;;;;;;1.98;0.60;;;;;;;21.54;24.62;96379.66;1673633;86;21296;-69
2022/05/18 12:20:54;;;;;;;5.05;0.70;;;;;;;22.11;25.29;96381.69;1673549;86;21049;-70
2022/05/18 12:23:28;;;;;;;0.62;0.60;;;;;;;22.33;23.11;96380.14;1673569;86;21110;-70